Time;durP1;ratioP1;P1;durP2;ratioP2;P2;SDS_P1;SDS_P2;PMS_P1;PMS_P2;Temp;Humidity;BMP_temperature;BMP_pressure;BME280_temperature;BME280_humidity;BME280_pressure;Samples;Min_cycle;Max_cycle;Signal;HPM_P1;HPM_P2
2023/10/30 00:02:05;;;;;;;2.50;0.90;;;14.10;99.90;;;;;;936404;149;27853;-75
2023/10/30 00:04:33;;;;;;;2.62;0.88;;;14.10;99.90;;;;;;913961;152;27370;-74
2023/10/30 00:06:59;;;;;;;2.45;1.20;;;14.20;99.90;;;;;;936186;149;27253;-74
2023/10/30 00:09:25;;;;;;;1.85;1.07;;;14.20;99.90;;;;;;935346;149;27374;-74
2023/10/30 00:11:51;;;;;;;1.17;0.95;;;14.20;99.90;;;;;;919639;152;27352;-75
2023/10/30 00:14:18;;;;;;;0.82;0.80;;;14.20;99.90;;;;;;937236;149;27366;-77
2023/10/30 00:16:45;;;;;;;1.20;1.10;;;14.20;99.90;;;;;;935525;149;27364;-74
2023/10/30 00:19:11;;;;;;;1.10;1.00;;;14.20;99.90;;;;;;918597;152;27395;-75
2023/10/30 00:21:38;;;;;;;0.82;0.80;;;14.20;99.90;;;;;;918950;152;27365;-77
2023/10/30 00:24:04;;;;;;;0.95;0.80;;;14.20;99.90;;;;;;924322;151;27270;-77
2023/10/30 00:26:31;;;;;;;0.65;0.65;;;14.20;99.90;;;;;;926803;151;27363;-77
2023/10/30 00:28:58;;;;;;;4.22;1.27;;;14.30;99.90;;;;;;944169;149;27451;-77
2023/10/30 00:31:25;;;;;;;1.25;0.90;;;14.20;99.90;;;;;;944804;149;27285;-77
2023/10/30 00:33:51;;;;;;;0.93;0.80;;;14.30;99.90;;;;;;945069;149;27269;-77
2023/10/30 00:36:17;;;;;;;2.00;1.10;;;14.30;99.90;;;;;;944641;149;27458;-77
2023/10/30 00:38:45;;;;;;;1.27;0.78;;;14.30;99.90;;;;;;944154;149;27788;-77
2023/10/30 00:41:11;;;;;;;1.35;0.85;;;14.30;99.90;;;;;;926353;151;27379;-76
2023/10/30 00:43:40;;;;;;;0.90;0.90;;;14.30;99.90;;;;;;927555;151;27368;-75
2023/10/30 00:46:07;;;;;;;0.82;0.82;;;14.30;99.90;;;;;;943689;149;27353;-74
2023/10/30 00:48:33;;;;;;;0.70;0.70;;;14.30;99.90;;;;;;944564;149;27720;-78
2023/10/30 00:51:00;;;;;;;2.50;0.93;;;14.30;99.90;;;;;;944677;149;27308;-75
2023/10/30 00:53:26;;;;;;;2.47;1.32;;;14.30;99.90;;;;;;944704;149;27331;-77
2023/10/30 00:55:53;;;;;;;3.60;1.22;;;14.30;99.90;;;;;;927787;154;27648;-77
2023/10/30 00:58:20;;;;;;;1.50;0.68;;;14.30;99.90;;;;;;928661;152;27492;-74
2023/10/30 01:00:46;;;;;;;4.22;1.07;;;14.30;99.90;;;;;;927993;152;27358;-77
2023/10/30 01:03:14;;;;;;;0.85;0.80;;;14.30;99.90;;;;;;943738;149;27543;-75
2023/10/30 01:05:39;;;;;;;1.90;1.37;;;14.30;99.90;;;;;;942914;149;27296;-75
2023/10/30 01:08:08;;;;;;;1.70;1.17;;;14.30;99.90;;;;;;943758;149;27457;-74
2023/10/30 01:10:33;;;;;;;3.42;1.10;;;14.30;99.90;;;;;;943101;149;27367;-74
2023/10/30 01:12:59;;;;;;;4.40;1.15;;;14.30;99.90;;;;;;926783;152;27482;-74
2023/10/30 01:15:26;;;;;;;1.62;0.80;;;14.30;99.90;;;;;;926767;152;27448;-74
2023/10/30 01:17:52;;;;;;;3.47;1.50;;;14.30;99.90;;;;;;927132;154;27436;-74
2023/10/30 01:20:19;;;;;;;2.62;0.80;;;14.30;99.90;;;;;;927227;152;27336;-74
2023/10/30 01:22:46;;;;;;;3.42;0.95;;;14.30;99.90;;;;;;930629;151;27331;-75
2023/10/30 01:25:12;;;;;;;1.67;0.93;;;14.30;99.90;;;;;;929834;151;27372;-74
2023/10/30 01:27:39;;;;;;;2.55;0.90;;;14.30;99.90;;;;;;926242;151;27338;-74
2023/10/30 01:30:06;;;;;;;1.47;0.90;;;14.30;99.90;;;;;;913894;152;27402;-77
2023/10/30 01:32:32;;;;;;;2.98;2.10;;;14.30;99.90;;;;;;933436;149;27358;-76
2023/10/30 01:34:59;;;;;;;1.72;0.90;;;14.30;99.90;;;;;;932884;149;27376;-76
2023/10/30 01:37:25;;;;;;;2.08;1.00;;;14.40;99.90;;;;;;911897;153;27415;-77
2023/10/30 01:39:52;;;;;;;3.92;1.30;;;14.30;99.90;;;;;;926180;151;27391;-77
2023/10/30 01:42:19;;;;;;;2.77;0.90;;;14.30;99.90;;;;;;926945;152;27364;-77
2023/10/30 01:44:54;;;;;;;2.10;1.00;;;14.30;99.90;;;;;;926607;151;27431;-79
2023/10/30 01:47:21;;;;;;;1.20;1.07;;;14.40;99.90;;;;;;925098;151;28058;-79
2023/10/30 01:49:47;;;;;;;1.70;0.95;;;14.40;99.90;;;;;;926139;152;27368;-79
2023/10/30 01:52:14;;;;;;;1.22;1.10;;;14.40;99.90;;;;;;926129;151;27376;-79
2023/10/30 01:54:41;;;;;;;0.82;0.82;;;14.30;99.90;;;;;;925853;151;27507;-79
2023/10/30 01:57:07;;;;;;;3.40;1.10;;;14.30;99.90;;;;;;927021;151;27380;-79
2023/10/30 01:59:34;;;;;;;1.95;1.07;;;14.40;99.90;;;;;;926023;152;27389;-76
2023/10/30 02:02:00;;;;;;;2.98;0.98;;;14.40;99.90;;;;;;927294;151;27368;-77
2023/10/30 02:04:27;;;;;;;2.58;1.00;;;14.40;99.90;;;;;;925747;151;27325;-77
2023/10/30 02:06:54;;;;;;;2.25;0.98;;;14.40;99.90;;;;;;926339;152;27391;-80
2023/10/30 02:09:20;;;;;;;2.17;0.98;;;14.40;99.90;;;;;;926594;151;27504;-79
2023/10/30 02:11:47;;;;;;;1.45;1.00;;;14.40;99.90;;;;;;926161;152;27391;-79
2023/10/30 02:14:13;;;;;;;1.00;0.88;;;14.40;99.90;;;;;;926807;151;27375;-75
2023/10/30 02:16:40;;;;;;;1.52;0.93;;;14.40;99.90;;;;;;926432;151;27292;-78
2023/10/30 02:19:08;;;;;;;1.40;1.02;;;14.40;99.90;;;;;;928219;151;27498;-80
2023/10/30 02:21:33;;;;;;;1.65;1.12;;;14.30;99.90;;;;;;925820;152;27346;-80
2023/10/30 02:24:06;;;;;;;2.40;1.10;;;14.30;99.90;;;;;;926662;151;27467;-79
2023/10/30 02:26:32;;;;;;;2.55;1.15;;;14.30;99.90;;;;;;926164;152;27892;-79
2023/10/30 02:29:01;;;;;;;3.17;1.07;;;14.30;99.90;;;;;;926887;152;27466;-79
2023/10/30 02:31:26;;;;;;;2.13;0.97;;;14.30;99.90;;;;;;926728;152;27319;-80
2023/10/30 02:33:52;;;;;;;1.43;1.07;;;14.30;99.90;;;;;;927373;151;27386;-79
2023/10/30 02:36:19;;;;;;;2.75;1.22;;;14.20;99.90;;;;;;927214;151;27344;-79
2023/10/30 02:38:45;;;;;;;1.40;0.95;;;14.20;99.90;;;;;;926246;151;27398;-76
2023/10/30 02:41:12;;;;;;;2.35;0.88;;;14.20;99.90;;;;;;926706;152;27481;-75
2023/10/30 02:43:38;;;;;;;1.40;1.10;;;14.20;99.90;;;;;;926856;151;27383;-76
2023/10/30 02:46:05;;;;;;;1.92;1.07;;;14.20;99.90;;;;;;926331;149;27384;-77
2023/10/30 02:48:32;;;;;;;1.80;0.93;;;14.20;99.90;;;;;;926542;152;28411;-74
2023/10/30 02:50:58;;;;;;;1.47;0.90;;;14.10;99.90;;;;;;926513;152;27284;-74
2023/10/30 02:53:25;;;;;;;1.65;0.85;;;14.10;99.90;;;;;;926790;151;27450;-74
2023/10/30 02:55:51;;;;;;;3.20;1.43;;;14.10;99.90;;;;;;926521;152;27367;-76
2023/10/30 02:58:18;;;;;;;1.98;0.95;;;14.10;99.90;;;;;;926664;151;27382;-76
2023/10/30 03:00:45;;;;;;;2.08;1.22;;;14.00;99.90;;;;;;926250;152;27340;-76
2023/10/30 03:03:11;;;;;;;2.72;0.95;;;14.10;99.90;;;;;;927202;152;27459;-76
2023/10/30 03:05:38;;;;;;;0.68;0.68;;;14.00;99.90;;;;;;927022;151;27477;-76
2023/10/30 03:08:04;;;;;;;3.40;0.98;;;14.00;99.90;;;;;;918926;152;27274;-76
2023/10/30 03:10:31;;;;;;;1.20;1.10;;;14.00;99.90;;;;;;933651;150;27335;-76
2023/10/30 03:12:57;;;;;;;1.82;0.72;;;14.00;99.90;;;;;;934220;149;27373;-76
2023/10/30 03:15:24;;;;;;;1.65;0.93;;;14.00;99.90;;;;;;912259;153;27345;-76
2023/10/30 03:17:51;;;;;;;4.85;1.60;;;13.90;99.90;;;;;;926324;151;27378;-76
2023/10/30 03:20:17;;;;;;;2.25;1.05;;;13.90;99.90;;;;;;927620;152;27460;-76
2023/10/30 03:22:44;;;;;;;1.57;0.90;;;13.90;99.90;;;;;;925927;152;27395;-76
2023/10/30 03:25:10;;;;;;;2.17;0.98;;;13.90;99.90;;;;;;926969;151;27376;-76
2023/10/30 03:27:37;;;;;;;1.10;0.90;;;13.90;99.90;;;;;;926471;151;27492;-76
2023/10/30 03:30:04;;;;;;;1.30;0.82;;;13.90;99.90;;;;;;924429;152;27726;-76
2023/10/30 03:32:30;;;;;;;4.12;1.15;;;13.90;99.90;;;;;;923119;152;27392;-76
2023/10/30 03:34:57;;;;;;;1.67;1.02;;;14.00;99.90;;;;;;921394;153;27830;-76
2023/10/30 03:37:23;;;;;;;5.15;2.30;;;13.90;99.90;;;;;;935868;150;27416;-76
2023/10/30 03:39:50;;;;;;;2.50;1.00;;;13.90;99.90;;;;;;936974;150;27280;-76
2023/10/30 03:42:17;;;;;;;1.87;0.93;;;13.90;99.90;;;;;;938124;150;27357;-76
2023/10/30 03:44:43;;;;;;;2.80;1.45;;;13.90;99.90;;;;;;936450;150;27447;-76
2023/10/30 03:47:10;;;;;;;1.10;1.00;;;13.90;99.90;;;;;;919148;153;27367;-76
2023/10/30 03:49:36;;;;;;;3.15;1.10;;;13.90;99.90;;;;;;937507;150;27337;-76
2023/10/30 03:52:03;;;;;;;1.60;0.97;;;13.90;99.90;;;;;;941956;150;27419;-76
2023/10/30 03:54:29;;;;;;;1.40;0.60;;;13.90;99.90;;;;;;919937;153;27379;-74
2023/10/30 03:56:56;;;;;;;1.50;0.98;;;13.90;99.90;;;;;;919867;153;27468;-74
2023/10/30 03:59:23;;;;;;;2.10;1.00;;;13.90;99.90;;;;;;937605;150;27354;-74
2023/10/30 04:01:49;;;;;;;1.17;0.90;;;13.90;99.90;;;;;;933719;150;27388;-74
2023/10/30 04:04:16;;;;;;;2.65;1.57;;;13.90;99.90;;;;;;936049;150;27307;-75
2023/10/30 04:06:42;;;;;;;1.25;1.17;;;13.90;99.90;;;;;;938081;150;27371;-77
2023/10/30 04:09:09;;;;;;;1.10;1.00;;;13.90;99.90;;;;;;936526;150;27263;-77
2023/10/30 04:11:36;;;;;;;3.02;1.17;;;13.90;99.90;;;;;;936761;150;27363;-77
2023/10/30 04:14:02;;;;;;;2.75;1.20;;;13.80;99.90;;;;;;922905;152;27334;-77
2023/10/30 04:16:29;;;;;;;1.80;1.40;;;13.80;99.90;;;;;;939413;150;27294;-77
2023/10/30 04:18:55;;;;;;;2.10;1.07;;;13.90;99.90;;;;;;936697;150;27293;-77
2023/10/30 04:21:22;;;;;;;2.08;1.20;;;13.90;99.90;;;;;;940726;149;27337;-77
2023/10/30 04:23:49;;;;;;;4.37;1.20;;;13.80;99.90;;;;;;937979;150;27428;-77
2023/10/30 04:26:15;;;;;;;1.27;0.90;;;13.80;99.90;;;;;;937818;150;27394;-77
2023/10/30 04:28:42;;;;;;;2.87;0.98;;;13.90;99.90;;;;;;914448;153;27418;-77
2023/10/30 04:31:09;;;;;;;1.37;0.57;;;13.80;99.90;;;;;;926112;151;27356;-77
2023/10/30 04:33:35;;;;;;;0.90;0.90;;;13.90;99.90;;;;;;927730;151;27423;-77
2023/10/30 04:36:02;;;;;;;1.50;1.00;;;13.90;99.90;;;;;;927003;152;27335;-76
2023/10/30 04:38:28;;;;;;;1.15;0.90;;;13.90;99.90;;;;;;927084;151;27809;-76
2023/10/30 04:40:55;;;;;;;1.95;1.00;;;13.90;99.90;;;;;;926184;152;27352;-76
2023/10/30 04:43:21;;;;;;;1.52;0.90;;;13.90;99.90;;;;;;926097;151;27403;-76
2023/10/30 04:45:48;;;;;;;2.47;1.12;;;13.90;99.90;;;;;;927265;152;27422;-76
2023/10/30 04:48:14;;;;;;;1.52;1.05;;;13.90;99.90;;;;;;926504;152;27436;-76
2023/10/30 04:50:41;;;;;;;0.80;0.80;;;13.90;99.90;;;;;;927248;151;27379;-76
2023/10/30 04:53:08;;;;;;;5.00;2.20;;;13.90;99.90;;;;;;926388;152;27446;-76
2023/10/30 04:55:37;;;;;;;2.15;1.00;;;13.90;99.90;;;;;;926815;152;27386;-77
2023/10/30 04:58:04;;;;;;;1.70;1.07;;;13.90;99.90;;;;;;926557;151;27514;-76
2023/10/30 05:00:30;;;;;;;0.88;0.80;;;13.90;99.90;;;;;;925913;151;27390;-76
2023/10/30 05:02:57;;;;;;;1.23;1.03;;;13.90;99.90;;;;;;926634;152;27414;-76
2023/10/30 05:05:24;;;;;;;2.08;0.88;;;13.90;99.90;;;;;;927048;151;27376;-76
2023/10/30 05:07:50;;;;;;;2.85;1.15;;;13.90;99.90;;;;;;927184;151;27437;-76
2023/10/30 05:10:16;;;;;;;2.45;0.93;;;13.90;99.90;;;;;;926606;152;27423;-76
2023/10/30 05:12:43;;;;;;;4.20;1.37;;;13.90;99.90;;;;;;926579;151;27367;-76
2023/10/30 05:15:10;;;;;;;1.40;1.20;;;13.90;99.90;;;;;;929740;152;27354;-76
2023/10/30 05:17:39;;;;;;;3.08;0.90;;;13.90;99.90;;;;;;929856;151;27405;-76
2023/10/30 05:20:03;;;;;;;2.05;0.95;;;13.90;99.90;;;;;;935488;149;27369;-76
2023/10/30 05:22:29;;;;;;;2.02;1.60;;;13.90;99.90;;;;;;922769;152;27377;-76
2023/10/30 05:24:56;;;;;;;6.78;0.93;;;13.90;99.90;;;;;;918954;152;27386;-76
2023/10/30 05:27:25;;;;;;;1.85;1.00;;;13.90;99.90;;;;;;929252;151;27380;-76
2023/10/30 05:29:49;;;;;;;0.93;0.82;;;13.90;99.90;;;;;;928176;151;27417;-76
2023/10/30 05:32:16;;;;;;;1.15;0.80;;;13.90;99.90;;;;;;927873;152;27378;-76
2023/10/30 05:34:42;;;;;;;2.00;0.90;;;13.90;99.90;;;;;;927667;151;27351;-76
2023/10/30 05:37:09;;;;;;;2.83;0.90;;;13.90;99.90;;;;;;927549;152;27444;-76
2023/10/30 05:39:36;;;;;;;1.52;0.78;;;13.90;99.90;;;;;;923974;153;27304;-76
2023/10/30 05:42:02;;;;;;;1.22;0.90;;;13.80;99.90;;;;;;927659;151;27345;-76
2023/10/30 05:44:31;;;;;;;2.10;1.10;;;13.80;99.90;;;;;;926824;151;27901;-76
2023/10/30 05:46:58;;;;;;;1.17;0.95;;;13.80;99.90;;;;;;928240;152;27431;-76
2023/10/30 05:49:25;;;;;;;4.67;1.37;;;13.80;99.90;;;;;;927608;152;27353;-76
2023/10/30 05:51:51;;;;;;;3.52;1.10;;;13.80;99.90;;;;;;927035;152;27318;-76
2023/10/30 05:54:18;;;;;;;0.97;0.90;;;13.80;99.90;;;;;;928259;152;27383;-76
2023/10/30 05:56:44;;;;;;;0.95;0.95;;;13.80;99.90;;;;;;920196;153;27490;-76
2023/10/30 05:59:11;;;;;;;1.30;1.00;;;13.80;99.90;;;;;;924893;153;27320;-76
2023/10/30 06:01:38;;;;;;;3.10;1.17;;;13.80;99.90;;;;;;924331;152;27379;-76
2023/10/30 06:04:04;;;;;;;1.55;1.00;;;13.80;99.90;;;;;;941289;149;27339;-76
2023/10/30 06:06:31;;;;;;;1.22;1.00;;;13.80;99.90;;;;;;937723;149;27353;-76
2023/10/30 06:08:58;;;;;;;1.70;1.20;;;13.80;99.90;;;;;;924614;152;27464;-76
2023/10/30 06:11:24;;;;;;;5.90;1.42;;;13.90;99.90;;;;;;924025;152;27293;-76
2023/10/30 06:13:51;;;;;;;2.12;1.20;;;13.90;99.90;;;;;;927036;152;27331;-76
2023/10/30 06:16:20;;;;;;;1.10;0.77;;;13.80;99.90;;;;;;923360;153;28776;-76
2023/10/30 06:18:44;;;;;;;3.05;1.00;;;13.80;99.90;;;;;;940991;149;27321;-76
2023/10/30 06:21:10;;;;;;;2.17;1.00;;;13.90;99.90;;;;;;941831;149;27732;-76
2023/10/30 06:23:37;;;;;;;7.25;1.67;;;13.90;99.90;;;;;;939905;149;27427;-76
2023/10/30 06:26:10;;;;;;;1.22;1.12;;;13.90;99.90;;;;;;924126;154;27359;-77
2023/10/30 06:28:37;;;;;;;1.00;0.95;;;13.90;99.90;;;;;;941530;149;27309;-77
2023/10/30 06:31:03;;;;;;;2.87;1.15;;;13.90;99.90;;;;;;929483;151;27428;-77
2023/10/30 06:33:29;;;;;;;1.25;1.15;;;13.90;99.90;;;;;;919128;152;27367;-77
2023/10/30 06:36:00;;;;;;;1.25;1.15;;;13.90;99.90;;;;;;920597;151;27380;-77
2023/10/30 06:38:26;;;;;;;2.00;1.20;;;13.90;99.90;;;;;;930187;151;27357;-77
2023/10/30 06:40:52;;;;;;;1.65;1.30;;;13.90;99.90;;;;;;928282;151;27365;-77
2023/10/30 06:43:19;;;;;;;4.03;1.12;;;13.90;99.90;;;;;;928799;152;27914;-77
2023/10/30 06:45:45;;;;;;;1.43;1.00;;;13.90;99.90;;;;;;929277;152;27417;-77
2023/10/30 06:48:12;;;;;;;1.40;0.88;;;13.90;99.90;;;;;;929264;152;27394;-77
2023/10/30 06:50:39;;;;;;;1.77;0.90;;;13.90;99.90;;;;;;929785;151;27400;-77
2023/10/30 06:53:05;;;;;;;2.10;1.00;;;13.90;99.90;;;;;;928544;152;27432;-77
2023/10/30 06:55:32;;;;;;;3.12;1.00;;;13.90;99.90;;;;;;929214;151;27452;-77
2023/10/30 06:57:58;;;;;;;2.55;1.40;;;13.90;99.90;;;;;;932926;152;27365;-78
2023/10/30 07:00:26;;;;;;;1.82;1.17;;;13.90;99.90;;;;;;929983;152;27367;-77
2023/10/30 07:02:51;;;;;;;1.70;1.05;;;13.90;99.90;;;;;;930804;152;27423;-77
2023/10/30 07:05:19;;;;;;;2.92;1.52;;;13.90;99.90;;;;;;929178;151;27304;-77
2023/10/30 07:07:45;;;;;;;2.37;1.22;;;13.90;99.90;;;;;;927768;151;27405;-77
2023/10/30 07:10:11;;;;;;;2.55;1.50;;;13.90;99.90;;;;;;914312;152;27453;-77
2023/10/30 07:12:38;;;;;;;1.82;1.30;;;13.90;99.90;;;;;;918413;152;27357;-78
2023/10/30 07:15:05;;;;;;;1.50;1.40;;;13.90;99.90;;;;;;930929;151;27283;-77
2023/10/30 07:17:31;;;;;;;1.67;1.45;;;13.90;99.90;;;;;;930606;152;27359;-78
2023/10/30 07:19:58;;;;;;;2.90;1.50;;;13.90;99.90;;;;;;928741;151;27448;-77
2023/10/30 07:22:25;;;;;;;2.37;1.05;;;13.90;99.90;;;;;;931065;151;27465;-77
2023/10/30 07:24:51;;;;;;;2.85;1.40;;;14.00;99.90;;;;;;931570;151;27469;-76
2023/10/30 07:27:18;;;;;;;1.27;1.17;;;14.00;99.90;;;;;;932081;152;27329;-76
2023/10/30 07:29:44;;;;;;;1.50;1.25;;;14.00;99.90;;;;;;928943;151;27470;-76
2023/10/30 07:32:11;;;;;;;4.28;1.60;;;14.00;99.90;;;;;;931530;151;27438;-76
2023/10/30 07:34:37;;;;;;;3.75;1.77;;;14.00;99.90;;;;;;929740;151;27385;-77
2023/10/30 07:37:04;;;;;;;4.03;1.25;;;14.00;99.90;;;;;;944835;149;28656;-77
2023/10/30 07:39:30;;;;;;;1.65;1.37;;;14.00;99.90;;;;;;945038;149;27297;-78
2023/10/30 07:41:57;;;;;;;2.17;1.60;;;14.00;99.90;;;;;;927279;152;27448;-77
2023/10/30 07:44:24;;;;;;;2.02;1.67;;;14.00;99.90;;;;;;930176;151;27473;-78
2023/10/30 07:46:50;;;;;;;2.27;1.67;;;14.00;99.90;;;;;;930592;151;27486;-77
2023/10/30 07:49:17;;;;;;;2.25;1.22;;;14.10;99.90;;;;;;923216;152;27323;-78
2023/10/30 07:51:43;;;;;;;1.45;1.25;;;14.10;99.90;;;;;;930162;151;27813;-77
2023/10/30 07:54:10;;;;;;;2.00;1.30;;;14.10;99.90;;;;;;930499;151;27474;-77
2023/10/30 07:56:36;;;;;;;1.32;1.12;;;14.10;99.90;;;;;;926657;152;27366;-77
2023/10/30 07:59:03;;;;;;;2.55;1.65;;;14.10;99.90;;;;;;943558;148;27361;-77
2023/10/30 08:01:30;;;;;;;2.60;1.17;;;14.20;99.90;;;;;;926347;152;27396;-78
2023/10/30 08:03:56;;;;;;;1.20;1.10;;;14.20;99.90;;;;;;941731;149;27446;-77
2023/10/30 08:06:24;;;;;;;1.62;1.30;;;14.20;99.90;;;;;;942685;149;27371;-77
2023/10/30 08:08:49;;;;;;;2.62;1.72;;;14.20;99.90;;;;;;940960;149;27464;-77
2023/10/30 08:11:16;;;;;;;5.03;1.70;;;14.20;99.90;;;;;;926542;152;27873;-80
2023/10/30 08:13:43;;;;;;;2.77;1.60;;;14.20;99.90;;;;;;942663;149;27333;-80
2023/10/30 08:16:10;;;;;;;3.10;1.62;;;14.20;99.90;;;;;;927907;152;27269;-77
2023/10/30 08:18:36;;;;;;;3.45;1.60;;;14.30;99.90;;;;;;924110;151;27379;-77
2023/10/30 08:21:02;;;;;;;1.62;1.52;;;14.30;99.90;;;;;;937448;150;27342;-77
2023/10/30 08:23:29;;;;;;;2.15;1.40;;;14.30;99.90;;;;;;937749;149;27333;-78
2023/10/30 08:25:56;;;;;;;2.60;1.47;;;14.40;99.90;;;;;;937405;149;27278;-77
2023/10/30 08:28:22;;;;;;;4.22;2.02;;;14.40;99.90;;;;;;937531;149;27405;-78
2023/10/30 08:30:49;;;;;;;1.60;1.50;;;14.50;99.90;;;;;;936046;149;27403;-77
2023/10/30 08:33:15;;;;;;;2.25;1.72;;;14.50;99.90;;;;;;927953;151;27281;-78
2023/10/30 08:35:42;;;;;;;3.55;1.87;;;14.60;99.90;;;;;;927601;152;27347;-76
2023/10/30 08:38:08;;;;;;;2.12;1.70;;;14.60;99.90;;;;;;926683;151;27362;-73
2023/10/30 08:40:35;;;;;;;2.75;1.72;;;14.70;99.90;;;;;;926950;152;27377;-74
2023/10/30 08:43:02;;;;;;;2.85;1.62;;;14.70;99.90;;;;;;928370;151;27303;-75
2023/10/30 08:45:28;;;;;;;2.35;1.30;;;14.80;99.90;;;;;;927623;150;27388;-77
2023/10/30 08:47:55;;;;;;;1.55;1.20;;;14.80;99.90;;;;;;928463;151;27445;-77
2023/10/30 08:50:21;;;;;;;2.35;1.05;;;14.80;99.90;;;;;;927472;151;27460;-77
2023/10/30 08:52:48;;;;;;;1.60;1.25;;;14.90;99.90;;;;;;927401;152;27682;-77
2023/10/30 08:55:15;;;;;;;1.35;1.12;;;14.90;99.90;;;;;;927166;151;28433;-77
2023/10/30 08:57:41;;;;;;;2.00;1.60;;;14.90;99.90;;;;;;928255;152;27382;-76
2023/10/30 09:00:08;;;;;;;4.08;1.40;;;14.90;99.90;;;;;;927754;150;27372;-77
2023/10/30 09:02:34;;;;;;;1.30;1.20;;;14.90;99.90;;;;;;927165;150;27419;-77
2023/10/30 09:05:01;;;;;;;1.67;1.27;;;14.90;99.90;;;;;;927696;151;27372;-76
2023/10/30 09:07:28;;;;;;;2.20;1.35;;;14.90;99.90;;;;;;926939;151;27474;-77
2023/10/30 09:09:54;;;;;;;1.50;1.40;;;14.90;99.90;;;;;;927005;151;27352;-78
2023/10/30 09:12:21;;;;;;;2.75;1.20;;;14.90;99.90;;;;;;928348;151;27442;-76
2023/10/30 09:14:47;;;;;;;3.22;1.65;;;15.00;99.90;;;;;;927942;151;27748;-76
2023/10/30 09:17:15;;;;;;;2.98;1.50;;;15.00;99.90;;;;;;927291;151;27435;-76
2023/10/30 09:19:41;;;;;;;2.50;1.65;;;15.00;99.90;;;;;;926985;152;27386;-76
2023/10/30 09:22:07;;;;;;;1.75;1.65;;;15.00;99.90;;;;;;927541;152;27316;-77
2023/10/30 09:24:34;;;;;;;1.70;1.60;;;15.10;99.90;;;;;;927324;151;27487;-76
2023/10/30 09:27:00;;;;;;;1.77;1.60;;;15.10;99.90;;;;;;927310;152;27375;-76
2023/10/30 09:29:27;;;;;;;2.90;1.67;;;15.20;99.90;;;;;;927693;150;27487;-76
2023/10/30 09:31:55;;;;;;;2.08;1.87;;;15.20;99.90;;;;;;928918;150;27494;-77
2023/10/30 09:34:20;;;;;;;1.90;1.75;;;15.30;99.90;;;;;;929876;151;27469;-77
2023/10/30 09:36:47;;;;;;;2.80;1.70;;;15.40;99.90;;;;;;930457;151;27356;-76
2023/10/30 09:39:13;;;;;;;2.40;2.15;;;15.50;99.90;;;;;;941698;150;27375;-77
2023/10/30 09:41:43;;;;;;;4.45;2.67;;;15.60;99.90;;;;;;934991;150;27360;-76
2023/10/30 09:44:08;;;;;;;2.25;2.05;;;15.70;99.90;;;;;;941683;148;27429;-76
2023/10/30 09:46:33;;;;;;;1.95;1.80;;;15.80;99.90;;;;;;934395;150;27401;-78
2023/10/30 09:49:00;;;;;;;3.10;2.17;;;15.80;99.90;;;;;;934892;150;27404;-77
2023/10/30 09:51:26;;;;;;;2.15;1.65;;;15.90;99.90;;;;;;941943;149;27434;-77
2023/10/30 09:53:53;;;;;;;3.75;1.90;;;16.00;99.90;;;;;;918410;153;27413;-77
2023/10/30 09:56:19;;;;;;;1.65;1.30;;;16.00;99.90;;;;;;918653;154;27332;-77
2023/10/30 09:58:46;;;;;;;2.27;1.30;;;16.10;99.90;;;;;;921044;153;27333;-78
2023/10/30 10:01:13;;;;;;;2.30;1.50;;;16.20;99.90;;;;;;942869;150;27311;-77
2023/10/30 10:03:39;;;;;;;2.42;1.57;;;16.20;99.90;;;;;;921595;152;27344;-78
2023/10/30 10:06:06;;;;;;;1.90;1.80;;;16.30;99.90;;;;;;922123;152;27319;-77
2023/10/30 10:08:33;;;;;;;3.83;1.65;;;16.30;99.90;;;;;;923548;152;27360;-77
2023/10/30 10:11:02;;;;;;;2.30;1.42;;;16.40;99.90;;;;;;935665;150;27365;-78
2023/10/30 10:13:34;;;;;;;3.60;1.70;;;16.40;99.90;;;;;;935622;150;28592;-77
2023/10/30 10:15:58;;;;;;;2.40;1.77;;;16.50;99.90;;;;;;918526;153;27392;-77
2023/10/30 10:18:27;;;;;;;1.62;1.52;;;16.50;99.90;;;;;;941227;150;27318;-78
2023/10/30 10:20:56;;;;;;;2.65;2.00;;;16.50;99.90;;;;;;920864;153;27532;-77
2023/10/30 10:23:23;;;;;;;2.80;2.05;;;16.60;99.90;;;;;;942710;150;27390;-78
2023/10/30 10:25:52;;;;;;;2.05;1.85;;;16.60;99.90;;;;;;935706;150;27355;-77
2023/10/30 10:28:19;;;;;;;2.77;2.00;;;16.70;99.90;;;;;;934182;150;27453;-77
2023/10/30 10:30:45;;;;;;;2.27;1.90;;;16.70;99.90;;;;;;933814;150;27396;-77
2023/10/30 10:33:12;;;;;;;1.98;1.50;;;16.70;99.90;;;;;;949691;148;27351;-78
2023/10/30 10:35:39;;;;;;;2.25;1.52;;;16.70;99.90;;;;;;932608;151;27296;-78
2023/10/30 10:38:08;;;;;;;1.72;1.40;;;16.70;99.90;;;;;;952562;148;27351;-78
2023/10/30 10:40:34;;;;;;;1.67;1.57;;;16.70;99.90;;;;;;931858;151;27393;-78
2023/10/30 10:43:01;;;;;;;1.87;1.50;;;16.80;99.90;;;;;;946044;148;27349;-78
2023/10/30 10:45:27;;;;;;;2.52;1.60;;;16.80;99.90;;;;;;946029;148;27380;-78
2023/10/30 10:47:54;;;;;;;4.22;1.62;;;16.80;99.90;;;;;;946205;148;27430;-78
2023/10/30 10:50:21;;;;;;;2.10;1.30;;;16.80;99.90;;;;;;946020;148;27319;-78
2023/10/30 10:52:47;;;;;;;3.72;1.50;;;16.80;99.90;;;;;;946503;148;27773;-78
2023/10/30 10:55:14;;;;;;;2.20;1.20;;;16.80;99.90;;;;;;950936;148;27333;-77
2023/10/30 10:57:46;;;;;;;1.65;1.12;;;16.90;99.90;;;;;;929963;151;27382;-78
2023/10/30 11:00:13;;;;;;;2.37;1.30;;;16.90;99.90;;;;;;927975;151;27395;-78
2023/10/30 11:02:39;;;;;;;1.22;1.10;;;16.90;99.90;;;;;;944537;148;27322;-78
2023/10/30 11:05:06;;;;;;;1.20;1.10;;;17.00;99.90;;;;;;945702;148;27380;-77
2023/10/30 11:07:35;;;;;;;0.93;0.93;;;17.00;99.90;;;;;;951989;148;27329;-76
2023/10/30 11:10:03;;;;;;;1.67;1.07;;;17.00;99.90;;;;;;945066;148;27350;-77
2023/10/30 11:12:53;;;;;;;0.90;0.90;;;17.10;99.90;;;;;;929421;150;27336;-77
2023/10/30 11:15:20;;;;;;;1.05;0.95;;;17.10;99.90;;;;;;951977;148;27358;-76
2023/10/30 11:18:14;;;;;;;1.90;1.17;;;17.20;99.90;;;;;;930738;151;27424;-77
2023/10/30 11:20:43;;;;;;;1.52;1.12;;;17.20;99.90;;;;;;953501;148;27416;-77
2023/10/30 11:23:10;;;;;;;1.50;1.40;;;17.20;99.90;;;;;;929190;151;27443;-76
2023/10/30 11:25:39;;;;;;;2.47;0.95;;;17.20;99.90;;;;;;954639;148;27297;-76
2023/10/30 11:28:06;;;;;;;0.90;0.90;;;17.20;99.90;;;;;;931409;151;27362;-76
2023/10/30 11:30:33;;;;;;;1.20;1.20;;;17.20;99.90;;;;;;929490;151;27360;-77
2023/10/30 11:33:01;;;;;;;1.50;1.15;;;17.20;99.90;;;;;;941391;148;27389;-76
2023/10/30 11:35:25;;;;;;;1.27;1.17;;;17.20;99.90;;;;;;933591;149;27336;-77
2023/10/30 11:37:54;;;;;;;1.02;0.95;;;17.10;99.90;;;;;;917834;152;27348;-77
2023/10/30 11:40:19;;;;;;;1.42;1.32;;;17.10;99.90;;;;;;930394;149;27379;-77
2023/10/30 11:42:45;;;;;;;1.22;1.20;;;17.10;99.90;;;;;;926506;152;27351;-76
2023/10/30 11:45:24;;;;;;;1.55;1.27;;;17.10;99.90;;;;;;925362;151;27859;-77
2023/10/30 11:48:05;;;;;;;0.95;0.95;;;17.10;99.90;;;;;;925324;151;27448;-77
2023/10/30 11:50:43;;;;;;;1.72;0.88;;;17.10;99.90;;;;;;916877;152;27523;-76
2023/10/30 11:53:10;;;;;;;0.98;0.93;;;17.10;99.90;;;;;;911281;152;27389;-76
2023/10/30 11:55:37;;;;;;;1.45;0.88;;;17.10;99.90;;;;;;931079;149;27379;-77
2023/10/30 11:58:03;;;;;;;1.95;0.88;;;17.10;99.90;;;;;;933487;149;27397;-76
2023/10/30 12:00:30;;;;;;;2.47;1.10;;;17.10;99.90;;;;;;917589;152;27400;-77
2023/10/30 12:02:56;;;;;;;1.07;0.90;;;17.10;99.90;;;;;;925718;151;27484;-77
2023/10/30 12:05:23;;;;;;;2.30;1.15;;;17.20;99.90;;;;;;925904;151;27379;-78
2023/10/30 12:07:49;;;;;;;1.20;1.07;;;17.20;99.90;;;;;;925702;152;27339;-78
2023/10/30 12:10:18;;;;;;;3.72;1.05;;;17.20;99.90;;;;;;917301;152;27336;-78
2023/10/30 12:12:43;;;;;;;0.90;0.90;;;17.30;99.90;;;;;;926465;151;27413;-78
2023/10/30 12:15:09;;;;;;;1.75;1.12;;;17.40;99.90;;;;;;926182;152;27459;-74
2023/10/30 12:17:38;;;;;;;1.55;1.00;;;17.40;99.90;;;;;;926076;151;27411;-74
2023/10/30 12:20:03;;;;;;;0.90;0.75;;;17.50;99.90;;;;;;925626;152;27360;-75
2023/10/30 12:22:29;;;;;;;1.70;0.75;;;17.50;99.90;;;;;;926009;152;27372;-74
2023/10/30 12:24:58;;;;;;;0.75;0.72;;;17.60;99.90;;;;;;926579;151;27379;-76
2023/10/30 12:27:22;;;;;;;1.12;1.00;;;17.60;99.90;;;;;;925822;152;27464;-77
2023/10/30 12:29:53;;;;;;;1.02;0.82;;;17.70;99.90;;;;;;925856;151;27333;-75
2023/10/30 12:32:15;;;;;;;1.40;0.90;;;17.70;99.90;;;;;;925304;151;27442;-77
2023/10/30 12:34:42;;;;;;;0.68;0.68;;;17.80;99.90;;;;;;926184;151;27505;-76
2023/10/30 12:37:26;;;;;;;1.72;1.15;;;17.70;99.90;;;;;;926185;152;27712;-75
2023/10/30 12:40:08;;;;;;;0.88;0.88;;;17.80;99.90;;;;;;924836;152;27352;-75
2023/10/30 12:42:35;;;;;;;2.22;0.98;;;17.80;99.90;;;;;;926105;151;28116;-74
2023/10/30 12:45:05;;;;;;;1.12;0.90;;;17.80;99.90;;;;;;926900;148;27551;-74
2023/10/30 12:47:31;;;;;;;1.00;0.90;;;17.80;99.90;;;;;;925096;152;27360;-77